createdAt,value
2017-08-01T00:00:03.067Z,51.7
2017-08-01T00:01:04.845Z,51.5
2017-08-01T00:02:06.981Z,51.6
2017-08-01T00:03:08.786Z,51.6
2017-08-01T00:04:11.119Z,51.4
2017-08-01T00:08:21.469Z,51.6
2017-08-01T00:09:23.801Z,52
2017-08-01T00:10:25.583Z,52
2017-08-01T00:11:53.386Z,51.6
2017-08-01T00:12:55.718Z,52
2017-08-01T00:16:35.132Z,52.5
2017-08-01T00:18:48.690Z,52
2017-08-01T00:19:50.134Z,51.9
2017-08-01T00:21:39.207Z,52.5
2017-08-01T00:22:41.337Z,52.2
2017-08-01T00:24:15.250Z,52.2
2017-08-01T00:25:17.383Z,52
2017-08-01T00:26:19.482Z,52.1
2017-08-01T00:27:21.279Z,52
2017-08-01T00:28:23.075Z,52.1
2017-08-01T00:29:25.083Z,52.3
2017-08-01T00:30:27.213Z,52.2
2017-08-01T00:31:29.344Z,52.6
2017-08-01T00:32:30.811Z,52.6
2017-08-01T00:33:32.612Z,52.1
2017-08-01T00:34:34.414Z,52.4
2017-08-01T00:35:35.893Z,52.2
2017-08-01T00:36:37.363Z,52
2017-08-01T00:37:39.159Z,52
2017-08-01T00:38:40.956Z,52.1
2017-08-01T00:39:43.089Z,52
2017-08-01T00:40:44.888Z,52.4
2017-08-01T00:41:47.020Z,52.6
2017-08-01T00:42:48.822Z,52.2
2017-08-01T00:43:50.601Z,52.3
2017-08-01T00:44:52.735Z,52.3
2017-08-01T00:45:53.845Z,52.6
2017-08-01T00:46:55.973Z,52.5
2017-08-01T00:47:58.104Z,52.2
2017-08-01T00:49:00.254Z,52.2
2017-08-01T00:50:02.031Z,52.1
2017-08-01T00:51:03.474Z,52.1
2017-08-01T00:52:05.253Z,52.4
2017-08-01T00:53:07.073Z,52
2017-08-01T00:54:09.205Z,52.2
2017-08-01T00:55:11.049Z,52.1
2017-08-01T00:56:13.179Z,52.1
2017-08-01T00:57:15.320Z,52.2
2017-08-01T00:58:17.123Z,52.1
2017-08-01T00:59:18.919Z,52.5
2017-08-01T01:00:20.718Z,52.1
2017-08-01T01:01:21.831Z,52.6
2017-08-01T01:02:23.630Z,52.6
2017-08-01T01:03:25.429Z,52.3
2017-08-01T01:04:27.226Z,52.3
2017-08-01T01:05:29.026Z,52.4
2017-08-01T01:06:31.159Z,52.6
2017-08-01T01:07:32.937Z,52.2
2017-08-01T01:08:35.070Z,52.7
2017-08-01T01:09:37.208Z,52.5
2017-08-01T01:10:39.337Z,52.5
2017-08-01T01:11:41.137Z,52.5
2017-08-01T01:12:42.604Z,52.3
2017-08-01T01:13:44.401Z,52.6
2017-08-01T01:14:46.205Z,52.3
2017-08-01T01:15:47.677Z,52.4
2017-08-01T01:16:49.473Z,52.2
2017-08-01T01:17:51.248Z,52.4
2017-08-01T01:18:53.046Z,52.8
2017-08-01T01:19:54.496Z,52.2
2017-08-01T01:20:56.625Z,52.6
2017-08-01T01:21:58.755Z,52.2
2017-08-01T01:23:00.885Z,52.4
2017-08-01T01:24:03.020Z,52.7
2017-08-01T01:25:04.797Z,52.9
2017-08-01T01:26:06.265Z,52.7
2017-08-01T01:27:08.066Z,52.3
2017-08-01T01:28:10.198Z,52.4
2017-08-01T01:29:12.327Z,52.3
2017-08-01T01:30:14.158Z,53
2017-08-01T01:31:16.287Z,52.3
2017-08-01T01:32:18.415Z,52.3
2017-08-01T01:33:20.545Z,52.3
2017-08-01T01:34:22.343Z,52.3
2017-08-01T01:35:24.478Z,53
2017-08-01T01:36:26.273Z,53
2017-08-01T01:37:27.411Z,52.9
2017-08-01T01:38:29.213Z,53
2017-08-01T01:39:30.675Z,52.7
2017-08-01T01:40:32.129Z,52.4
2017-08-01T01:41:33.928Z,53
2017-08-01T01:42:36.061Z,52.6
2017-08-01T01:43:37.860Z,52.6
2017-08-01T01:44:39.638Z,52.9
2017-08-01T01:45:41.776Z,53.1
2017-08-01T01:46:43.574Z,52.7
2017-08-01T01:47:45.706Z,52.8
2017-08-01T01:48:47.148Z,53.2
2017-08-01T01:49:49.280Z,52.6
2017-08-01T01:50:51.410Z,52.8
2017-08-01T01:51:53.186Z,53.2
2017-08-01T01:52:54.987Z,52.6
2017-08-01T01:53:56.786Z,52.6
2017-08-01T01:54:58.563Z,52.7
2017-08-01T01:56:00.364Z,53.3
2017-08-01T01:57:02.175Z,52.7
2017-08-01T01:58:04.297Z,53.4
2017-08-01T01:59:06.084Z,52.9
2017-08-01T02:00:07.533Z,53.2
2017-08-01T02:01:09.665Z,52.6
2017-08-01T02:02:11.137Z,53.4
2017-08-01T02:03:12.917Z,53.2
2017-08-01T02:04:15.054Z,53.4
2017-08-01T02:05:17.180Z,53.4
2017-08-01T02:06:18.297Z,53
2017-08-01T02:07:20.424Z,52.9
2017-08-01T02:08:22.202Z,53
2017-08-01T02:09:23.647Z,52.9
2017-08-01T02:10:25.092Z,53.3
2017-08-01T02:11:26.553Z,52.8
2017-08-01T02:12:28.352Z,53.1
2017-08-01T02:13:30.483Z,53.2
2017-08-01T02:14:32.612Z,53
2017-08-01T02:15:34.743Z,52.8
2017-08-01T02:16:36.541Z,52.8
2017-08-01T02:17:38.674Z,52.9
2017-08-01T02:18:40.807Z,53.3
2017-08-01T02:19:42.937Z,52.7
2017-08-01T02:20:45.068Z,53.2
2017-08-01T02:21:46.511Z,53.1
2017-08-01T02:22:48.314Z,53.3
2017-08-01T02:23:50.443Z,53.2
2017-08-01T02:24:52.576Z,52.8
2017-08-01T02:25:54.708Z,52.7
2017-08-01T02:26:56.512Z,52.9
2017-08-01T02:27:57.960Z,52.9
2017-08-01T02:28:59.759Z,53.3
2017-08-01T02:30:01.888Z,53.3
2017-08-01T02:31:03.332Z,52.9
2017-08-01T02:32:04.771Z,52.9
2017-08-01T02:33:06.571Z,53.4
2017-08-01T02:34:08.040Z,52.9
2017-08-01T02:35:10.168Z,53.2
2017-08-01T02:36:11.965Z,53
2017-08-01T02:37:13.771Z,53.2
2017-08-01T02:38:15.900Z,52.8
2017-08-01T02:39:17.697Z,53
2017-08-01T02:40:19.830Z,52.8
2017-08-01T02:41:21.297Z,52.9
2017-08-01T02:42:22.766Z,52.9
2017-08-01T02:43:24.893Z,53
2017-08-01T02:44:26.336Z,53.2
2017-08-01T02:45:28.149Z,53.1
2017-08-01T02:46:30.278Z,53.5
2017-08-01T02:47:32.406Z,53.3
2017-08-01T02:48:34.208Z,53.7
2017-08-01T02:49:36.338Z,53.5
2017-08-01T02:50:38.117Z,52.8
2017-08-01T02:51:40.249Z,53.2
2017-08-01T02:52:42.381Z,53
2017-08-01T02:53:44.514Z,53.6
2017-08-01T02:54:46.642Z,53.1
2017-08-01T02:55:48.476Z,53.3
2017-08-01T02:56:50.610Z,53.2
2017-08-01T02:57:52.741Z,53.2
2017-08-01T02:58:54.876Z,53.3
2017-08-01T02:59:56.007Z,53.5
2017-08-01T03:00:58.138Z,53
2017-08-01T03:01:59.942Z,53
2017-08-01T03:03:01.718Z,52.9
2017-08-01T03:04:03.850Z,52.9
2017-08-01T03:05:05.648Z,53.7
2017-08-01T03:06:07.782Z,53.1
2017-08-01T03:07:09.914Z,53.1
2017-08-01T03:08:11.694Z,53.2
2017-08-01T03:09:13.823Z,53.1
2017-08-01T03:10:15.955Z,53
2017-08-01T03:11:18.084Z,53.3
2017-08-01T03:12:20.213Z,53.3
2017-08-01T03:13:22.343Z,53.1
2017-08-01T03:14:24.471Z,53.1
2017-08-01T03:15:26.602Z,53.4
2017-08-01T03:16:28.403Z,53.2
2017-08-01T03:17:30.202Z,53.5
2017-08-01T03:18:32.331Z,53.2
2017-08-01T03:19:34.466Z,53.7
2017-08-01T03:20:36.595Z,53.1
2017-08-01T03:21:38.725Z,53.9
2017-08-01T03:22:40.171Z,53
2017-08-01T03:23:41.636Z,53.1
2017-08-01T03:24:43.442Z,53.7
2017-08-01T03:25:44.911Z,53
2017-08-01T03:26:46.716Z,53.6
2017-08-01T03:27:48.843Z,53.5
2017-08-01T03:28:50.975Z,53.3
2017-08-01T03:29:52.751Z,53
2017-08-01T03:30:54.539Z,53.1
2017-08-01T03:31:56.671Z,53
2017-08-01T03:32:58.804Z,53.3
2017-08-01T03:34:00.934Z,52.9
2017-08-01T03:35:02.733Z,53.1
2017-08-01T03:36:04.528Z,53.6
2017-08-01T03:37:05.971Z,53
2017-08-01T03:38:08.115Z,53.2
2017-08-01T03:39:10.245Z,53.1
2017-08-01T03:40:12.423Z,52.9
2017-08-01T03:41:14.223Z,53.6
2017-08-01T03:42:16.044Z,53.2
2017-08-01T03:43:18.163Z,53.1
2017-08-01T03:44:20.294Z,53
2017-08-01T03:45:21.744Z,53.3
2017-08-01T03:46:23.877Z,53
2017-08-01T03:47:26.013Z,53.5
2017-08-01T03:48:28.143Z,53.3
2017-08-01T03:49:30.274Z,53.2
2017-08-01T03:50:32.406Z,53
2017-08-01T03:51:34.538Z,53.2
2017-08-01T03:52:36.676Z,53.3
2017-08-01T03:53:38.809Z,53.2
2017-08-01T03:54:40.612Z,53.6
2017-08-01T03:55:42.410Z,53.2
2017-08-01T03:56:43.525Z,53.7
2017-08-01T03:57:45.657Z,53.2
2017-08-01T03:58:47.790Z,53.8
2017-08-01T03:59:49.588Z,53.2
2017-08-01T04:00:51.724Z,53.2
2017-08-01T04:01:53.858Z,53.5
2017-08-01T04:02:55.634Z,53.7
2017-08-01T04:03:57.421Z,53.2
2017-08-01T04:04:59.227Z,53.8
2017-08-01T04:06:01.025Z,53.7
2017-08-01T04:07:02.471Z,53.9
2017-08-01T04:08:04.603Z,53.3
2017-08-01T04:09:06.381Z,53
2017-08-01T04:10:08.509Z,53.8
2017-08-01T04:11:10.370Z,53.2
2017-08-01T04:12:11.812Z,53.1
2017-08-01T04:13:13.947Z,53.3
2017-08-01T04:14:16.079Z,53.3
2017-08-01T04:15:17.885Z,53.2
2017-08-01T04:16:19.327Z,53.4
2017-08-01T04:17:20.775Z,53.2
2017-08-01T04:18:22.244Z,53.2
2017-08-01T04:19:24.026Z,53.2
2017-08-01T04:20:26.158Z,53
2017-08-01T04:21:28.290Z,53.4
2017-08-01T04:22:30.090Z,53.4
2017-08-01T04:23:31.888Z,53.4
2017-08-01T04:24:33.362Z,53.4
2017-08-01T04:25:35.143Z,53.2
2017-08-01T04:26:36.948Z,53.9
2017-08-01T04:27:38.400Z,53.4
2017-08-01T04:28:40.195Z,53.9
2017-08-01T04:29:41.973Z,53.2
2017-08-01T04:30:43.771Z,53.2
2017-08-01T04:31:45.905Z,53.3
2017-08-01T04:32:48.037Z,53.8
2017-08-01T04:33:49.842Z,53.4
2017-08-01T04:34:51.975Z,53.4
2017-08-01T04:35:54.109Z,53.2
2017-08-01T04:36:55.911Z,53.3
2017-08-01T04:37:57.727Z,53.4
2017-08-01T04:38:59.525Z,53.4
2017-08-01T04:40:01.663Z,53.4
2017-08-01T04:41:03.801Z,53.4
2017-08-01T04:42:05.599Z,53.8
2017-08-01T04:43:07.400Z,53.3
2017-08-01T04:44:09.198Z,53.3
2017-08-01T04:45:11.002Z,53.9
2017-08-01T04:46:13.135Z,53.3
2017-08-01T04:47:15.269Z,53.4
2017-08-01T04:48:17.067Z,53.4
2017-08-01T04:49:18.847Z,53.3
2017-08-01T04:50:20.648Z,53.9
2017-08-01T04:51:22.448Z,53.3
2017-08-01T04:52:24.230Z,53.5
2017-08-01T04:53:26.010Z,53.4
2017-08-01T04:54:28.141Z,53.7
2017-08-01T04:55:30.276Z,53.8
2017-08-01T04:56:32.404Z,53.4
2017-08-01T04:57:34.181Z,53.1
2017-08-01T04:58:35.988Z,53.3
2017-08-01T04:59:37.458Z,53.8
2017-08-01T05:00:39.259Z,53.2
2017-08-01T05:01:41.389Z,53.1
2017-08-01T05:02:43.194Z,54
2017-08-01T05:03:44.998Z,53.4
2017-08-01T05:04:47.128Z,53.8
2017-08-01T05:05:48.932Z,53.3
2017-08-01T05:06:50.727Z,53.4
2017-08-01T05:07:52.504Z,53.2
2017-08-01T05:08:54.636Z,53.4
2017-08-01T05:09:56.774Z,53.9
2017-08-01T05:10:58.904Z,53.3
2017-08-01T05:12:00.702Z,53.5
2017-08-01T05:13:02.172Z,53.3
2017-08-01T05:14:04.303Z,53.4
2017-08-01T05:15:06.100Z,53.3
2017-08-01T05:16:07.901Z,53.3
2017-08-01T05:17:10.034Z,53.9
2017-08-01T05:18:11.819Z,53.4
2017-08-01T05:19:13.947Z,53.3
2017-08-01T05:20:16.138Z,53.8
2017-08-01T05:21:17.928Z,53.9
2017-08-01T05:22:19.726Z,53.3
2017-08-01T05:23:21.530Z,53.8
2017-08-01T05:24:22.640Z,53.3
2017-08-01T05:25:24.423Z,53.2
2017-08-01T05:26:26.223Z,53.9
2017-08-01T05:27:28.030Z,53.4
2017-08-01T05:28:30.159Z,53.8
2017-08-01T05:29:31.939Z,53.7
2017-08-01T05:30:33.841Z,53.6
2017-08-01T05:31:35.974Z,53.4
2017-08-01T05:32:37.774Z,53.6
2017-08-01T05:33:39.586Z,53.6
2017-08-01T05:34:41.712Z,53.4
2017-08-01T05:35:43.157Z,53.6
2017-08-01T05:36:44.937Z,53.5
2017-08-01T05:37:46.404Z,53.9
2017-08-01T05:38:47.873Z,53.9
2017-08-01T05:39:50.008Z,53.4
2017-08-01T05:40:51.910Z,53.4
2017-08-01T05:41:53.380Z,53.9
2017-08-01T05:42:55.177Z,53.7
2017-08-01T05:43:56.623Z,53.2
2017-08-01T05:44:58.091Z,53.3
2017-08-01T05:45:59.971Z,53.9
2017-08-01T05:47:01.757Z,53.3
2017-08-01T05:48:03.556Z,53.5
2017-08-01T05:49:04.690Z,53.2
2017-08-01T05:50:06.549Z,53.7
2017-08-01T05:51:08.686Z,53.9
2017-08-01T05:52:10.488Z,53.6
2017-08-01T05:53:12.289Z,53.3
2017-08-01T05:54:14.090Z,53.3
2017-08-01T05:55:16.223Z,53.6
2017-08-01T05:56:18.022Z,53.7
2017-08-01T05:57:20.156Z,54.1
2017-08-01T05:58:21.952Z,53.7
2017-08-01T05:59:24.090Z,53.5
2017-08-01T06:00:26.218Z,53.4
2017-08-01T06:01:28.021Z,53.6
2017-08-01T06:02:29.817Z,53.2
2017-08-01T06:03:31.954Z,53.7
2017-08-01T06:04:33.755Z,53.9
2017-08-01T06:05:35.557Z,53.3
2017-08-01T06:06:37.025Z,53.3
2017-08-01T06:07:38.802Z,53.3
2017-08-01T06:08:40.935Z,53.4
2017-08-01T06:09:43.066Z,53.4
2017-08-01T06:10:44.514Z,53.3
2017-08-01T06:11:46.645Z,53.9
2017-08-01T06:12:48.115Z,53.2
2017-08-01T06:13:49.894Z,53.5
2017-08-01T06:14:51.673Z,53.4
2017-08-01T06:15:53.584Z,53.9
2017-08-01T06:16:55.387Z,53.6
2017-08-01T06:17:57.185Z,54
2017-08-01T06:18:58.651Z,53.3
2017-08-01T06:20:00.453Z,53.3
2017-08-01T06:21:02.581Z,53.3
2017-08-01T06:22:04.388Z,53.9
2017-08-01T06:23:05.848Z,53.6
2017-08-01T06:24:07.986Z,53.5
2017-08-01T06:25:10.120Z,53.4
2017-08-01T06:26:11.924Z,53.5
2017-08-01T06:27:13.726Z,53.5
2017-08-01T06:28:15.858Z,53.6
2017-08-01T06:29:17.991Z,53.5
2017-08-01T06:30:19.793Z,53.6
2017-08-01T06:31:21.929Z,53.5
2017-08-01T06:32:24.060Z,53.6
2017-08-01T06:33:25.856Z,53.5
2017-08-01T06:34:27.988Z,53.5
2017-08-01T06:35:29.785Z,53.5
2017-08-01T06:36:31.966Z,53.5
2017-08-01T06:37:33.755Z,53.7
2017-08-01T06:38:35.889Z,53.5
2017-08-01T06:39:37.708Z,53.5
2017-08-01T06:40:39.850Z,53.3
2017-08-01T06:41:41.628Z,53.6
2017-08-01T06:42:42.412Z,53.3
2017-08-01T06:43:44.207Z,53.6
2017-08-01T06:44:46.360Z,53.3
2017-08-01T06:45:47.476Z,53.8
2017-08-01T06:46:49.663Z,53.7
2017-08-01T06:47:51.463Z,53.7
2017-08-01T06:48:53.595Z,53.5
2017-08-01T06:49:55.393Z,53.5
2017-08-01T06:50:56.862Z,53.6
2017-08-01T06:51:58.666Z,53.6
2017-08-01T06:53:00.132Z,53.4
2017-08-01T06:54:02.270Z,53.7
2017-08-01T06:55:04.397Z,53.6
2017-08-01T06:56:06.532Z,53.7
2017-08-01T06:57:08.680Z,53.5
2017-08-01T06:58:10.810Z,53.7
2017-08-01T06:59:12.939Z,53.6
2017-08-01T07:00:14.739Z,53.6
2017-08-01T07:01:16.545Z,53.5
2017-08-01T07:02:17.671Z,53.6
2017-08-01T07:03:19.138Z,53.6
2017-08-01T07:04:21.277Z,53.5
2017-08-01T07:05:23.406Z,53.8
2017-08-01T07:06:25.538Z,54.3
2017-08-01T07:07:26.988Z,53.4
2017-08-01T07:08:28.764Z,53.5
2017-08-01T07:09:30.236Z,53.7
2017-08-01T07:10:31.707Z,53.4
2017-08-01T07:11:33.488Z,53.6
2017-08-01T07:12:35.618Z,53.4
2017-08-01T07:13:37.750Z,53.5
2017-08-01T07:14:39.192Z,53.4
2017-08-01T07:15:41.325Z,53.9
2017-08-01T07:16:43.458Z,53.4
2017-08-01T07:17:45.254Z,53.4
2017-08-01T07:18:47.389Z,53.7
2017-08-01T07:19:49.520Z,54
2017-08-01T07:20:51.316Z,53.5
2017-08-01T07:21:52.432Z,53.6
2017-08-01T07:22:54.564Z,54.1
2017-08-01T07:23:56.074Z,53.5
2017-08-01T07:24:57.873Z,53.5
2017-08-01T07:25:59.343Z,54
2017-08-01T07:27:01.484Z,53.6
2017-08-01T07:28:03.032Z,53.4
2017-08-01T07:29:05.166Z,53.4
2017-08-01T07:30:06.973Z,53.6
2017-08-01T07:31:08.419Z,53.8
2017-08-01T07:32:09.867Z,53.5
2017-08-01T07:33:11.341Z,53.6
2017-08-01T07:34:12.807Z,53.6
2017-08-01T07:35:14.260Z,53.5
2017-08-01T07:36:15.710Z,53.5
2017-08-01T07:37:17.842Z,53.4
2017-08-01T07:38:19.975Z,53.5
2017-08-01T07:39:21.747Z,53.8
2017-08-01T07:40:23.880Z,54.3
2017-08-01T07:41:25.683Z,54.2
2017-08-01T07:42:27.815Z,53.9
2017-08-01T07:43:29.661Z,53.6
2017-08-01T07:44:31.794Z,53.3
2017-08-01T07:45:33.924Z,53.3
2017-08-01T07:46:35.726Z,53.4
2017-08-01T07:47:37.502Z,53.5
2017-08-01T07:48:39.631Z,53.2
2017-08-01T07:49:41.763Z,53.5
2017-08-01T07:50:43.894Z,53.4
2017-08-01T07:51:45.694Z,54.3
2017-08-01T07:52:47.495Z,54.3
2017-08-01T07:53:49.295Z,53.5
2017-08-01T07:54:51.425Z,53.6
2017-08-01T07:55:53.558Z,54.2
2017-08-01T07:56:55.356Z,53.2
2017-08-01T07:57:57.157Z,53.4
2017-08-01T07:58:58.960Z,54.2
2017-08-01T08:00:01.096Z,54.4
2017-08-01T08:01:02.567Z,53.9
2017-08-01T08:02:04.364Z,53.7
2017-08-01T08:03:06.500Z,53.8
2017-08-01T08:04:08.300Z,53.8
2017-08-01T08:05:09.433Z,53.4
2017-08-01T08:06:11.567Z,54.3
2017-08-01T08:07:13.015Z,54.3
2017-08-01T08:08:14.788Z,53.8
2017-08-01T08:09:16.286Z,53.3
2017-08-01T08:10:18.064Z,53.9
2017-08-01T08:11:19.863Z,53.9
2017-08-01T08:12:22.007Z,53.9
2017-08-01T08:13:24.123Z,53.5
2017-08-01T08:14:26.261Z,54.4
2017-08-01T08:15:28.394Z,53.7
2017-08-01T08:16:30.173Z,54.4
2017-08-01T08:17:31.976Z,53.4
2017-08-01T08:18:33.755Z,53.4
2017-08-01T08:19:35.537Z,54.2
2017-08-01T08:20:37.670Z,54.2
2017-08-01T08:21:39.804Z,53.8
2017-08-01T08:22:41.601Z,53.3
2017-08-01T08:23:43.732Z,53.6
2017-08-01T08:24:45.865Z,53.3
2017-08-01T08:25:47.669Z,54.3
2017-08-01T08:26:49.802Z,53.5
2017-08-01T08:27:51.934Z,53.4
2017-08-01T08:28:54.065Z,53.3
2017-08-01T08:29:55.184Z,53.9
2017-08-01T08:30:57.314Z,53.3
2017-08-01T08:31:58.754Z,53.3
2017-08-01T08:33:00.555Z,54.3
2017-08-01T08:34:01.998Z,53.3
2017-08-01T08:35:03.439Z,54.3
2017-08-01T08:36:04.906Z,53.7
2017-08-01T08:37:07.047Z,53.9
2017-08-01T08:38:08.891Z,53.3
2017-08-01T08:39:11.023Z,54.4
2017-08-01T08:40:12.134Z,53.3
2017-08-01T08:41:14.266Z,53.7
2017-08-01T08:42:16.399Z,54.2
2017-08-01T08:43:18.532Z,53.9
2017-08-01T08:44:20.013Z,54.2
2017-08-01T08:45:22.144Z,54.3
2017-08-01T08:46:24.276Z,54.3
2017-08-01T08:47:26.075Z,53.8
2017-08-01T08:48:27.851Z,53.9
2017-08-01T08:49:29.983Z,53.6
2017-08-01T08:50:31.787Z,53.4
2017-08-01T08:51:33.563Z,53.4
2017-08-01T08:52:35.696Z,53.3
2017-08-01T08:53:37.828Z,53.5
2017-08-01T08:54:39.613Z,53.3
2017-08-01T08:55:41.785Z,53.3
2017-08-01T08:56:43.585Z,53.9
2017-08-01T08:57:45.715Z,53.4
2017-08-01T08:58:47.499Z,54
2017-08-01T08:59:49.631Z,53.7
2017-08-01T09:00:51.408Z,53.7
2017-08-01T09:01:53.541Z,53.8
2017-08-01T09:02:55.674Z,54.1
2017-08-01T09:03:56.812Z,54.2
2017-08-01T09:04:58.595Z,54.1
2017-08-01T09:06:00.397Z,54.5
2017-08-01T09:07:02.540Z,53.8
2017-08-01T09:08:03.672Z,54.2
2017-08-01T09:09:05.139Z,54.3
2017-08-01T09:10:06.940Z,53.2
2017-08-01T09:11:08.391Z,53.4
2017-08-01T09:12:09.858Z,53.7
2017-08-01T09:13:11.661Z,53.6
2017-08-01T09:14:13.464Z,53.4
2017-08-01T09:15:15.600Z,53.8
2017-08-01T09:16:17.735Z,54.1
2017-08-01T09:17:19.878Z,54
2017-08-01T09:18:21.678Z,54.3
2017-08-01T09:19:22.789Z,53.5
2017-08-01T09:20:24.921Z,53.7
2017-08-01T09:21:26.721Z,53.9
2017-08-01T09:22:28.170Z,53.7
2017-08-01T09:23:30.308Z,53.7
2017-08-01T09:24:32.444Z,54
2017-08-01T09:25:34.574Z,53.6
2017-08-01T09:26:36.380Z,53.7
2017-08-01T09:27:38.514Z,53.9
2017-08-01T09:28:40.311Z,53.5
2017-08-01T09:29:42.092Z,53.2
2017-08-01T09:30:44.224Z,53.4
2017-08-01T09:31:46.357Z,53.5
2017-08-01T09:32:48.164Z,53.8
2017-08-01T09:33:50.298Z,53.3
2017-08-01T09:34:51.743Z,53.8
2017-08-01T09:35:53.546Z,53.2
2017-08-01T09:36:55.020Z,53.1
2017-08-01T09:37:57.150Z,53.5
2017-08-01T09:38:58.623Z,53.5
2017-08-01T09:40:00.766Z,53.2
2017-08-01T09:41:02.897Z,53.6
2017-08-01T09:42:04.346Z,53.6
2017-08-01T09:43:06.151Z,53.3
2017-08-01T09:44:07.961Z,53.2
2017-08-01T09:45:09.762Z,53.7
2017-08-01T09:46:11.897Z,53.1
2017-08-01T09:47:13.705Z,53.1
2017-08-01T09:48:15.505Z,52.9
2017-08-01T09:49:17.643Z,53.3
2017-08-01T09:50:19.774Z,53.4
2017-08-01T09:51:21.587Z,53.7
2017-08-01T09:52:23.384Z,53.3
2017-08-01T09:53:25.189Z,53.5
2017-08-01T09:54:27.320Z,53.2
2017-08-01T09:55:29.097Z,53.1
2017-08-01T09:56:31.281Z,53.4
2017-08-01T09:57:33.416Z,53.1
2017-08-01T09:58:34.884Z,53.2
2017-08-01T09:59:36.355Z,53.3
2017-08-01T10:00:38.489Z,53.4
2017-08-01T10:01:39.625Z,53.4
2017-08-01T10:02:41.093Z,53.3
2017-08-01T10:03:42.894Z,53.4
2017-08-01T10:04:44.694Z,53.3
2017-08-01T10:05:46.827Z,53.2
2017-08-01T10:06:48.635Z,53.3
2017-08-01T10:07:50.410Z,53.9
2017-08-01T10:08:52.557Z,53.3
2017-08-01T10:09:54.695Z,53.8
2017-08-01T10:10:56.140Z,53.7
2017-08-01T10:11:57.989Z,53.6
2017-08-01T10:13:00.122Z,53.6
2017-08-01T10:14:01.928Z,53.4
2017-08-01T10:15:03.739Z,53.6
2017-08-01T10:16:05.518Z,53.3
2017-08-01T10:17:06.966Z,53.1
2017-08-01T10:18:09.099Z,53.3
2017-08-01T10:19:11.235Z,53.6
2017-08-01T10:20:12.676Z,53.1
2017-08-01T10:21:14.812Z,53.1
2017-08-01T10:22:16.697Z,53.4
2017-08-01T10:23:18.139Z,53.3
2017-08-01T10:24:19.918Z,53.2
2017-08-01T10:25:21.392Z,53.6
2017-08-01T10:26:22.502Z,53.6
2017-08-01T10:27:24.309Z,53.4
2017-08-01T10:28:26.112Z,53.4
2017-08-01T10:29:27.580Z,53.5
2017-08-01T10:30:29.379Z,53.4
2017-08-01T10:31:31.179Z,53.5
2017-08-01T10:32:32.985Z,53.6
2017-08-01T10:33:35.117Z,53.6
2017-08-01T10:34:36.925Z,54.3
2017-08-01T10:35:38.705Z,53.6
2017-08-01T10:36:40.156Z,53.7
2017-08-01T10:37:41.931Z,53.6
2017-08-01T10:38:43.733Z,53.6
2017-08-01T10:39:45.869Z,53.4
2017-08-01T10:40:47.663Z,53.9
2017-08-01T10:41:49.132Z,53.4
2017-08-01T10:42:50.931Z,53.9
2017-08-01T10:43:52.734Z,54.4
2017-08-01T10:44:54.866Z,53.7
2017-08-01T10:45:56.667Z,53.4
2017-08-01T10:46:58.451Z,53.8
2017-08-01T10:48:00.350Z,54.4
2017-08-01T10:49:02.481Z,54.3
2017-08-01T10:50:04.615Z,53.6
2017-08-01T10:51:06.082Z,54
2017-08-01T10:52:07.884Z,53.8
2017-08-01T10:53:09.405Z,53.7
2017-08-01T10:54:10.850Z,53.8
2017-08-01T10:55:12.979Z,53.6
2017-08-01T10:56:14.427Z,53.8
2017-08-01T10:57:16.558Z,53.5
2017-08-01T10:58:18.051Z,53.9
2017-08-01T10:59:19.504Z,53.6
2017-08-01T11:00:21.636Z,53.5
2017-08-01T11:01:23.773Z,53.8
2017-08-01T11:02:25.214Z,53.9
2017-08-01T11:03:26.687Z,54.1
2017-08-01T11:04:28.818Z,54.4
2017-08-01T11:05:30.627Z,53.5
2017-08-01T11:06:32.080Z,54.5
2017-08-01T11:07:33.884Z,53.6
2017-08-01T11:08:35.353Z,53.4
2017-08-01T11:09:37.489Z,53.6
2017-08-01T11:10:39.290Z,53.7
2017-08-01T11:11:40.757Z,53.6
2017-08-01T11:12:42.890Z,53.7
2017-08-01T11:13:45.026Z,53.8
2017-08-01T11:14:47.159Z,53.6
2017-08-01T11:15:48.622Z,53.7
2017-08-01T11:16:50.421Z,54
2017-08-01T11:17:52.554Z,54.1
2017-08-01T11:18:54.074Z,53.6
2017-08-01T11:19:56.212Z,53.6
2017-08-01T11:20:57.654Z,53.7
2017-08-01T11:21:59.794Z,53.4
2017-08-01T11:23:00.912Z,53.6
2017-08-01T11:24:02.822Z,53.6
2017-08-01T11:25:04.273Z,54.3
2017-08-01T11:26:06.074Z,54
2017-08-01T11:27:08.207Z,53.5
2017-08-01T11:28:09.651Z,53.4
2017-08-01T11:29:11.153Z,53.7
2017-08-01T11:30:12.953Z,53.6
2017-08-01T11:31:14.736Z,53.6
2017-08-01T11:32:16.869Z,53.6
2017-08-01T11:33:18.671Z,53.6
2017-08-01T11:34:20.502Z,53.4
2017-08-01T11:35:22.633Z,53.5
2017-08-01T11:36:24.110Z,53.6
2017-08-01T11:37:25.915Z,53.6
2017-08-01T11:38:27.380Z,53.7
2017-08-01T11:39:28.849Z,53.4
2017-08-01T11:40:29.981Z,53.5
2017-08-01T11:41:31.455Z,53.6
2017-08-01T11:42:33.584Z,53.6
2017-08-01T11:43:35.715Z,54.4
2017-08-01T11:44:37.513Z,53.6
2017-08-01T11:45:38.985Z,53.6
2017-08-01T11:46:40.786Z,54
2017-08-01T11:47:42.230Z,53.7
2017-08-01T11:48:43.700Z,53.9
2017-08-01T11:49:45.831Z,53.8
2017-08-01T11:50:47.965Z,53.7
2017-08-01T11:51:50.099Z,53.8
2017-08-01T11:52:52.229Z,53.6
2017-08-01T11:53:54.360Z,53.4
2017-08-01T11:54:56.140Z,53.9
2017-08-01T11:55:57.276Z,54.3
2017-08-01T11:56:58.745Z,54.2
2017-08-01T11:58:00.566Z,53.9
2017-08-01T11:59:02.353Z,54.1
2017-08-01T12:00:03.800Z,53.8
2017-08-01T12:01:05.246Z,53.8
2017-08-01T12:02:06.726Z,53.4
2017-08-01T12:03:08.189Z,53.7
2017-08-01T12:04:09.993Z,53.6
2017-08-01T12:05:11.770Z,53.6
2017-08-01T12:06:13.901Z,53.9
2017-08-01T12:07:15.018Z,53.5
2017-08-01T12:08:16.491Z,53.4
2017-08-01T12:09:18.293Z,53.6
2017-08-01T12:10:20.426Z,53.6
2017-08-01T12:11:21.896Z,54.2
2017-08-01T12:12:23.694Z,53.5
2017-08-01T12:13:25.826Z,53.7
2017-08-01T12:14:27.961Z,53.4
2017-08-01T12:15:29.410Z,53.7
2017-08-01T12:16:31.217Z,53.6
2017-08-01T12:17:33.355Z,53.6
2017-08-01T12:18:35.492Z,53.9
2017-08-01T12:19:36.620Z,53.3
2017-08-01T12:20:38.093Z,53.4
2017-08-01T12:21:39.891Z,53.3
2017-08-01T12:22:41.365Z,53.3
2017-08-01T12:23:43.165Z,53.6
2017-08-01T12:24:44.969Z,53.6
2017-08-01T12:25:46.773Z,53.9
2017-08-01T12:26:48.226Z,54.1
2017-08-01T12:27:49.696Z,53.5
2017-08-01T12:28:51.497Z,53.5
2017-08-01T12:29:52.967Z,53.6
2017-08-01T12:30:55.108Z,53.5
2017-08-01T12:31:56.907Z,53.6
2017-08-01T12:32:58.381Z,53.6
2017-08-01T12:34:00.161Z,54.4
2017-08-01T12:35:02.293Z,53.6
2017-08-01T12:36:04.425Z,53.7
2017-08-01T12:37:06.240Z,53.8
2017-08-01T12:38:07.347Z,53.7
2017-08-01T12:39:09.149Z,53.5
2017-08-01T12:40:10.949Z,53.5
2017-08-01T12:41:12.392Z,53.9
2017-08-01T12:42:14.197Z,53.6
2017-08-01T12:43:15.977Z,53.4
2017-08-01T12:44:18.111Z,53.3
2017-08-01T12:45:19.913Z,53.6
2017-08-01T12:46:21.377Z,53.6
2017-08-01T12:47:23.512Z,53.8
2017-08-01T12:48:25.645Z,54.4
2017-08-01T12:49:27.089Z,53.5
2017-08-01T12:50:28.202Z,53.5
2017-08-01T12:51:29.651Z,53.9
2017-08-01T12:52:31.451Z,53.6
2017-08-01T12:53:33.252Z,53.6
2017-08-01T12:54:35.050Z,53.7
2017-08-01T12:55:36.835Z,54.3
2017-08-01T12:56:38.638Z,53.9
2017-08-01T12:57:39.748Z,54
2017-08-01T12:58:41.880Z,53.9
2017-08-01T12:59:43.324Z,53.6
2017-08-01T13:00:45.125Z,53.6
2017-08-01T13:01:46.593Z,53.3
2017-08-01T13:02:48.402Z,53.4
2017-08-01T13:03:49.870Z,53.4
2017-08-01T13:04:51.652Z,54
2017-08-01T13:05:53.782Z,53.6
2017-08-01T13:06:55.583Z,53.5
2017-08-01T13:07:57.720Z,53.6
2017-08-01T13:08:59.521Z,53.6
2017-08-01T13:10:00.970Z,53.5
2017-08-01T13:11:02.449Z,54
2017-08-01T13:12:04.226Z,54
2017-08-01T13:13:05.686Z,53.5
2017-08-01T13:14:07.832Z,53.5
2017-08-01T13:15:09.628Z,53.6
2017-08-01T13:16:10.745Z,53.3
2017-08-01T13:17:12.879Z,53.4
2017-08-01T13:18:14.326Z,53.6
2017-08-01T13:19:16.130Z,54
2017-08-01T13:20:18.266Z,53.6
2017-08-01T13:21:20.398Z,53.5
2017-08-01T13:22:22.531Z,53.6
2017-08-01T13:23:24.331Z,53.7
2017-08-01T13:24:25.779Z,53.4
2017-08-01T13:25:27.913Z,53.4
2017-08-01T13:26:29.044Z,53.6
2017-08-01T13:27:30.845Z,53.5
2017-08-01T13:28:32.979Z,53.6
2017-08-01T13:29:34.114Z,53.7
2017-08-01T13:30:35.584Z,53.6
2017-08-01T13:31:37.720Z,53.6
2017-08-01T13:32:39.845Z,53.4
2017-08-01T13:33:41.978Z,54
2017-08-01T13:34:44.108Z,53.6
2017-08-01T13:35:45.907Z,53.6
2017-08-01T13:36:47.683Z,53.8
2017-08-01T13:37:49.817Z,53.6
2017-08-01T13:38:51.616Z,53.5
2017-08-01T13:39:53.748Z,53.8
2017-08-01T13:40:55.883Z,53.9
2017-08-01T13:41:57.681Z,53.4
2017-08-01T13:42:59.480Z,54.1
2017-08-01T13:44:01.261Z,53.8
2017-08-01T13:45:02.705Z,53.9
2017-08-01T13:46:03.842Z,53.7
2017-08-01T13:47:05.974Z,54.1
2017-08-01T13:48:07.774Z,53.7
2017-08-01T13:49:09.235Z,54.3
2017-08-01T13:50:11.034Z,53.8
2017-08-01T13:51:12.811Z,53.6
2017-08-01T13:52:13.930Z,53.5
2017-08-01T13:53:15.371Z,53.8
2017-08-01T13:54:17.509Z,54.4